createdAt,value
2019-03-08T00:02:28.973Z,1999.90
2019-03-08T00:05:00.579Z,1999.90
2019-03-08T00:07:38.782Z,1999.90
2019-03-08T00:10:07.751Z,1999.90
2019-03-08T00:12:36.462Z,1999.90
2019-03-08T00:15:05.586Z,1999.90
2019-03-08T00:17:43.710Z,1999.90
2019-03-08T00:20:12.763Z,1999.90
2019-03-08T00:22:41.549Z,1999.90
2019-03-08T00:25:10.507Z,1999.90
2019-03-08T00:30:22.849Z,1999.90
2019-03-08T00:32:51.538Z,1999.90
2019-03-08T00:35:20.330Z,1999.90
2019-03-08T00:37:59.577Z,1999.90
2019-03-08T00:40:28.753Z,1999.90
2019-03-08T00:42:57.809Z,1999.90
2019-03-08T00:45:26.532Z,1999.90
2019-03-08T00:48:06.225Z,1999.90
2019-03-08T00:50:37.814Z,1999.90
2019-03-08T00:53:06.550Z,1999.90
2019-03-08T00:55:37.275Z,1999.90
2019-03-08T00:58:15.304Z,1999.90
2019-03-08T01:00:44.024Z,1999.90
2019-03-08T01:03:12.736Z,1999.90
2019-03-08T01:05:41.867Z,1999.90
2019-03-08T01:08:22.363Z,1999.90
2019-03-08T01:10:51.148Z,1999.90
2019-03-08T01:13:20.263Z,1999.90
2019-03-08T01:15:49.414Z,1999.90
2019-03-08T01:18:28.403Z,1999.90
2019-03-08T01:20:58.720Z,1999.90
2019-03-08T01:23:29.843Z,1999.90
2019-03-08T01:26:07.683Z,1999.90
2019-03-08T01:28:37.226Z,1999.90
2019-03-08T01:31:06.105Z,1999.90
2019-03-08T01:33:38.228Z,1999.90
2019-03-08T01:36:16.484Z,1999.90
2019-03-08T01:38:45.503Z,1999.90
2019-03-08T01:41:14.602Z,1999.90
2019-03-08T01:43:46.865Z,1999.90
2019-03-08T01:46:25.515Z,1999.90
2019-03-08T01:48:54.831Z,1999.90
2019-03-08T01:51:23.607Z,1999.90
2019-03-08T01:53:52.765Z,1999.90
2019-03-08T01:56:31.127Z,1999.90
2019-03-08T01:58:59.847Z,1999.90
2019-03-08T02:01:28.978Z,1999.90
2019-03-08T02:03:58.260Z,1999.90
2019-03-08T02:06:36.366Z,1999.90
2019-03-08T02:09:06.675Z,1486.60
2019-03-08T02:11:35.560Z,1951.53
2019-03-08T02:14:04.604Z,1714.83
2019-03-08T02:16:43.063Z,1290.93
2019-03-08T02:19:14.925Z,1261.17
2019-03-08T02:21:43.948Z,1330.20
2019-03-08T02:24:14.092Z,1278.17
2019-03-08T02:26:52.598Z,1230.00
2019-03-08T02:29:21.784Z,1155.87
2019-03-08T02:31:51.888Z,1402.00
2019-03-08T02:34:22.653Z,1271.93
2019-03-08T02:37:00.872Z,1380.23
2019-03-08T02:39:29.902Z,1441.47
2019-03-08T02:41:58.959Z,1520.13
2019-03-08T02:44:30.728Z,1768.87
2019-03-08T02:47:09.400Z,1386.60
2019-03-08T02:49:38.407Z,1471.43
2019-03-08T02:52:07.532Z,1299.93
2019-03-08T02:54:36.280Z,1468.27
2019-03-08T02:59:41.541Z,1999.90
2019-03-08T03:02:10.434Z,1999.90
2019-03-08T03:04:39.459Z,1999.90
2019-03-08T03:07:17.270Z,1999.90
2019-03-08T03:09:46.349Z,1999.90
2019-03-08T03:12:15.186Z,1999.90
2019-03-08T03:14:43.911Z,1999.90
2019-03-08T03:17:22.139Z,1999.90
2019-03-08T03:19:53.071Z,1999.90
2019-03-08T03:22:21.785Z,1999.90
2019-03-08T03:24:51.055Z,1999.90
2019-03-08T03:27:29.215Z,1999.90
2019-03-08T03:29:57.950Z,1999.90
2019-03-08T03:32:27.309Z,1999.90
2019-03-08T03:34:56.234Z,1999.90
2019-03-08T03:37:34.018Z,1999.90
2019-03-08T03:42:37.689Z,1999.90
2019-03-08T03:45:06.807Z,1999.90
2019-03-08T03:47:44.738Z,1999.90
2019-03-08T03:50:13.730Z,1999.90
2019-03-08T03:52:42.695Z,1999.90
2019-03-08T03:55:11.609Z,1999.90
2019-03-08T03:57:49.744Z,1999.90
2019-03-08T04:00:18.920Z,1999.90
2019-03-08T04:02:47.679Z,1999.90
2019-03-08T04:05:16.389Z,1999.90
2019-03-08T04:07:54.405Z,1999.90
2019-03-08T04:10:23.101Z,1999.90
2019-03-08T04:12:52.046Z,1999.90
2019-03-08T04:15:23.136Z,1999.90
2019-03-08T04:18:01.110Z,1999.90
2019-03-08T04:20:29.841Z,1999.90
2019-03-08T04:22:59.043Z,1999.90
2019-03-08T04:25:31.314Z,1999.90
2019-03-08T04:28:09.552Z,1999.90
2019-03-08T04:30:38.493Z,1999.90
2019-03-08T04:33:07.189Z,1999.90
2019-03-08T04:35:36.011Z,1999.90
2019-03-08T04:38:14.024Z,1999.90
2019-03-08T04:40:45.072Z,1999.90
2019-03-08T04:43:13.765Z,1999.90
2019-03-08T04:45:43.442Z,1999.90
2019-03-08T04:48:21.146Z,1999.90
2019-03-08T04:50:50.439Z,1999.90
2019-03-08T04:53:23.382Z,1999.90
2019-03-08T04:55:52.111Z,1999.90
2019-03-08T04:58:29.982Z,1999.90
2019-03-08T05:00:58.991Z,1999.90
2019-03-08T05:03:30.733Z,1999.90
2019-03-08T05:06:00.830Z,1999.90
2019-03-08T05:08:38.642Z,1999.90
2019-03-08T05:11:07.409Z,1999.90
2019-03-08T05:13:36.243Z,1999.90
2019-03-08T05:16:07.937Z,1999.90
2019-03-08T05:18:45.868Z,1999.90
2019-03-08T05:21:14.994Z,1999.90
2019-03-08T05:23:44.544Z,1999.90
2019-03-08T05:26:13.480Z,1999.90
2019-03-08T05:28:54.523Z,1999.90
2019-03-08T05:31:23.289Z,1999.90
2019-03-08T05:33:52.540Z,1999.90
2019-03-08T05:36:22.146Z,1999.90
2019-03-08T05:41:28.265Z,1999.90
2019-03-08T05:43:59.824Z,1999.90
2019-03-08T05:46:30.931Z,1999.90
2019-03-08T05:49:09.212Z,1999.90
2019-03-08T05:51:38.011Z,1999.90
2019-03-08T05:54:07.604Z,1999.90
2019-03-08T05:56:37.622Z,1999.90
2019-03-08T05:59:22.948Z,1999.90
2019-03-08T06:01:53.467Z,1999.90
2019-03-08T06:04:22.471Z,1999.90
2019-03-08T06:06:54.414Z,1999.90
2019-03-08T06:09:32.721Z,1999.90
2019-03-08T06:12:02.024Z,1999.90
2019-03-08T06:14:32.251Z,1999.90
2019-03-08T06:17:06.327Z,1999.90
2019-03-08T06:19:47.267Z,1999.90
2019-03-08T06:22:30.869Z,1999.90
2019-03-08T06:24:59.633Z,1999.90
2019-03-08T06:27:42.169Z,1999.90
2019-03-08T06:30:11.214Z,1999.90
2019-03-08T06:32:40.774Z,1999.90
2019-03-08T06:35:13.886Z,1999.90
2019-03-08T06:37:43.356Z,1999.90
2019-03-08T06:40:14.561Z,1999.90
2019-03-08T06:42:44.347Z,1999.90
2019-03-08T06:45:29.523Z,1999.90
2019-03-08T06:48:24.035Z,1999.90
2019-03-08T06:51:00.423Z,1999.90
2019-03-08T06:53:29.736Z,1999.90
2019-03-08T06:56:04.410Z,1999.90
2019-03-08T06:58:57.756Z,1999.90
2019-03-08T07:01:27.539Z,1999.90
2019-03-08T07:03:57.459Z,1999.90
2019-03-08T07:06:26.619Z,1777.30
2019-03-08T07:09:08.463Z,1577.17
2019-03-08T07:11:38.123Z,1643.47
2019-03-08T07:14:07.656Z,1999.90
2019-03-08T07:16:51.222Z,1412.83
2019-03-08T07:19:22.251Z,1642.20
2019-03-08T07:21:55.202Z,1772.40
2019-03-08T07:24:42.566Z,1497.17
2019-03-08T07:27:54.929Z,1442.90
2019-03-08T07:31:04.706Z,1306.20
2019-03-08T07:33:52.856Z,1456.47
2019-03-08T07:36:35.273Z,1408.13
2019-03-08T07:39:35.069Z,1522.40
2019-03-08T07:42:52.148Z,1365.83
2019-03-08T07:46:15.796Z,1213.80
2019-03-08T07:49:08.860Z,1167.13
2019-03-08T07:51:53.206Z,1239.27
2019-03-08T07:54:32.904Z,1445.83
2019-03-08T07:57:29.153Z,1473.30
2019-03-08T08:00:10.438Z,1999.90
2019-03-08T08:02:48.115Z,1862.63
2019-03-08T08:05:57.388Z,1585.30
2019-03-08T08:08:28.835Z,1306.43
2019-03-08T08:11:08.681Z,1909.30
2019-03-08T08:14:05.697Z,1769.70
2019-03-08T08:17:10.467Z,1803.77
2019-03-08T08:20:16.332Z,1999.90
2019-03-08T08:22:53.982Z,1999.90
2019-03-08T08:25:40.014Z,1750.17
2019-03-08T08:28:22.915Z,1999.90
2019-03-08T08:31:20.540Z,1999.90
2019-03-08T08:34:06.183Z,1999.90
2019-03-08T08:37:02.315Z,1999.90
2019-03-08T08:39:50.575Z,1426.47
2019-03-08T08:43:47.060Z,1999.90
2019-03-08T08:45:16.776Z,1414.77
2019-03-08T08:48:06.588Z,1308.47
2019-03-08T08:50:58.777Z,1999.90
2019-03-08T08:53:35.277Z,1431.33
2019-03-08T08:56:55.201Z,1243.60
2019-03-08T08:59:35.098Z,1714.97
2019-03-08T09:02:23.033Z,1425.67
2019-03-08T09:05:24.408Z,1673.17
2019-03-08T09:08:28.340Z,1784.73
2019-03-08T09:11:44.580Z,1705.17
2019-03-08T09:14:25.109Z,1267.20
2019-03-08T09:17:35.131Z,1567.43
2019-03-08T09:20:34.487Z,1228.13
2019-03-08T09:23:12.871Z,1994.40
2019-03-08T09:25:53.290Z,1874.47
2019-03-08T09:28:59.825Z,1999.90
2019-03-08T09:31:44.040Z,1999.90
2019-03-08T09:34:22.287Z,1999.90
2019-03-08T09:37:20.870Z,1999.90
2019-03-08T09:40:11.928Z,1999.90
2019-03-08T09:43:02.924Z,1939.03
2019-03-08T09:45:41.908Z,1331.17
2019-03-08T09:48:35.919Z,1999.90
2019-03-08T09:51:35.963Z,1466.53
2019-03-08T09:54:15.043Z,1733.30
2019-03-08T09:57:13.208Z,1948.63
2019-03-08T10:00:13.813Z,1427.67
2019-03-08T10:02:52.512Z,1999.90
2019-03-08T10:05:47.805Z,1999.90
2019-03-08T10:08:45.255Z,1999.90
2019-03-08T10:11:19.367Z,1999.90
2019-03-08T10:14:10.085Z,1999.90
2019-03-08T10:16:52.081Z,1999.90
2019-03-08T10:22:46.433Z,1999.90
2019-03-08T10:25:52.741Z,1999.90
2019-03-08T10:28:54.218Z,1999.90
2019-03-08T10:31:42.990Z,1999.90
2019-03-08T10:34:29.296Z,1999.90
2019-03-08T10:37:04.825Z,1999.90
2019-03-08T10:40:05.879Z,1999.90
2019-03-08T10:42:44.137Z,1999.90
2019-03-08T10:45:36.115Z,1999.90
2019-03-08T10:48:42.327Z,1999.90
2019-03-08T10:51:32.527Z,1999.90
2019-03-08T10:54:09.989Z,1999.90
2019-03-08T10:56:58.358Z,1999.90
2019-03-08T11:00:13.956Z,1999.90
2019-03-08T11:03:00.566Z,1999.90
2019-03-08T11:05:57.626Z,1999.90
2019-03-08T11:08:48.263Z,1999.90
2019-03-08T11:11:39.462Z,1999.90
2019-03-08T11:14:46.013Z,1999.90
2019-03-08T11:17:24.861Z,1999.90
2019-03-08T11:23:15.713Z,1999.90
2019-03-08T11:26:02.484Z,1999.90
2019-03-08T11:29:05.695Z,1999.90
2019-03-08T11:31:47.703Z,1999.90
2019-03-08T11:34:21.653Z,1999.90
2019-03-08T11:36:58.046Z,1999.90
2019-03-08T11:39:58.247Z,1999.90
2019-03-08T11:42:39.476Z,1999.90
2019-03-08T11:45:31.485Z,1999.90
2019-03-08T11:51:30.190Z,1999.90
2019-03-08T11:54:14.886Z,1999.90
2019-03-08T11:57:06.867Z,1999.90
2019-03-08T11:59:53.891Z,1999.90
2019-03-08T12:02:42.302Z,1999.90
2019-03-08T12:05:42.391Z,1999.90
2019-03-08T12:11:25.610Z,1999.90
2019-03-08T12:14:12.736Z,1999.90
2019-03-08T12:17:00.944Z,1999.90
2019-03-08T12:19:56.705Z,1999.90
2019-03-08T12:22:36.771Z,1999.90
2019-03-08T12:25:13.758Z,1999.90
2019-03-08T12:28:10.582Z,1999.90
2019-03-08T12:34:00.051Z,1999.90
2019-03-08T12:36:46.441Z,1999.90
2019-03-08T12:39:42.700Z,1999.90
2019-03-08T12:42:27.571Z,1999.90
2019-03-08T12:45:15.196Z,1999.90
2019-03-08T12:48:07.313Z,1999.90
2019-03-08T12:51:10.446Z,1999.90
2019-03-08T12:53:49.484Z,1999.90
2019-03-08T12:56:42.236Z,1999.90
2019-03-08T13:02:28.837Z,1999.90
2019-03-08T13:05:13.049Z,1999.90
2019-03-08T13:08:05.799Z,1854.17
2019-03-08T13:10:44.307Z,1581.90
2019-03-08T13:13:14.070Z,1092.67
2019-03-08T13:15:44.044Z,1999.90
2019-03-08T13:18:15.505Z,1999.90
2019-03-08T13:20:53.918Z,1931.80
2019-03-08T13:23:22.722Z,1999.90
2019-03-08T13:25:54.746Z,1134.20
2019-03-08T13:28:23.486Z,1642.63
2019-03-08T13:31:01.841Z,1999.90
2019-03-08T13:33:30.863Z,1999.90
2019-03-08T13:35:59.859Z,1696.13
2019-03-08T13:38:28.805Z,1751.50
2019-03-08T13:41:20.888Z,1356.60
2019-03-08T13:43:50.240Z,1194.00
2019-03-08T13:46:21.558Z,1434.27
2019-03-08T13:48:50.784Z,1435.03
2019-03-08T13:51:29.796Z,1893.40
2019-03-08T13:53:59.919Z,1999.90
2019-03-08T13:56:28.939Z,1999.90
2019-03-08T13:58:59.137Z,1999.90
2019-03-08T14:01:30.272Z,1928.60
2019-03-08T14:04:02.009Z,1868.00
2019-03-08T14:09:15.496Z,1476.77
2019-03-08T14:11:44.682Z,1999.90
2019-03-08T14:14:13.518Z,1677.33
2019-03-08T14:16:54.407Z,1627.93
2019-03-08T14:19:23.163Z,1642.20
2019-03-08T14:21:52.049Z,1464.50
2019-03-08T14:24:23.806Z,1358.17
2019-03-08T14:27:01.870Z,1568.83
2019-03-08T14:29:40.836Z,1398.67
2019-03-08T14:32:12.061Z,1999.90
2019-03-08T14:34:40.760Z,1393.03
2019-03-08T14:37:19.897Z,1239.43
2019-03-08T14:39:50.895Z,1684.63
2019-03-08T14:42:28.926Z,1309.60
2019-03-08T14:45:20.229Z,1413.83
2019-03-08T14:50:37.223Z,1999.90
2019-03-08T14:53:07.026Z,1999.90
2019-03-08T14:55:38.839Z,1999.90
2019-03-08T14:58:16.694Z,1999.90
2019-03-08T15:00:45.486Z,1999.90
2019-03-08T15:03:14.199Z,1999.90
2019-03-08T15:05:43.690Z,1999.90
2019-03-08T15:10:57.521Z,1999.90
2019-03-08T15:13:28.466Z,1999.90
2019-03-08T15:16:02.239Z,1999.90
2019-03-08T15:18:31.231Z,1999.90
2019-03-08T15:21:01.311Z,1999.90
2019-03-08T15:23:30.121Z,1999.90
2019-03-08T15:26:01.800Z,1999.90
2019-03-08T15:28:42.189Z,1999.90
2019-03-08T15:31:11.007Z,1999.90
2019-03-08T15:33:39.832Z,1999.90
2019-03-08T15:36:08.913Z,1999.90
2019-03-08T15:39:16.251Z,1999.90
2019-03-08T15:41:45.417Z,1999.90
2019-03-08T15:44:14.709Z,1999.90
2019-03-08T15:46:44.126Z,1545.27
2019-03-08T15:49:13.258Z,1275.90
2019-03-08T15:51:43.012Z,1505.97
2019-03-08T15:54:13.299Z,1242.67
2019-03-08T15:59:30.642Z,1310.47
2019-03-08T16:02:02.161Z,1945.37
2019-03-08T16:04:31.408Z,1999.90
2019-03-08T16:07:09.552Z,1999.90
2019-03-08T16:09:38.669Z,1834.17
2019-03-08T16:12:07.473Z,1464.87
2019-03-08T16:14:36.755Z,1295.77
2019-03-08T16:17:07.745Z,1246.80
2019-03-08T16:19:40.096Z,1050.40
2019-03-08T16:22:09.018Z,1028.50
2019-03-08T16:24:39.274Z,979.57
2019-03-08T16:30:09.658Z,951.33
2019-03-08T16:33:44.957Z,962.53
2019-03-08T16:40:42.000Z,691.87
2019-03-08T16:43:20.609Z,803.53
2019-03-08T16:46:38.770Z,783.00
2019-03-08T16:49:14.661Z,750.83
2019-03-08T16:52:07.520Z,830.77
2019-03-08T16:54:57.613Z,804.20
2019-03-08T16:57:57.812Z,827.20
2019-03-08T17:04:00.135Z,721.00
2019-03-08T17:06:43.514Z,710.87
2019-03-08T17:09:33.091Z,681.30
2019-03-08T17:12:23.744Z,664.63
2019-03-08T17:15:06.676Z,672.40
2019-03-08T17:17:43.285Z,747.57
2019-03-08T17:20:29.839Z,720.00
2019-03-08T17:23:21.118Z,782.90
2019-03-08T17:26:00.471Z,843.23
2019-03-08T17:28:42.220Z,742.47
2019-03-08T17:31:29.291Z,1044.77
2019-03-08T17:34:17.390Z,872.33
2019-03-08T17:36:54.156Z,868.13
2019-03-08T17:39:42.335Z,779.27
2019-03-08T17:42:50.531Z,802.80
2019-03-08T17:45:45.069Z,936.93
2019-03-08T17:48:33.373Z,869.57
2019-03-08T17:51:36.741Z,675.73
2019-03-08T17:54:27.944Z,689.20
2019-03-08T17:57:22.184Z,722.70
2019-03-08T18:00:07.722Z,710.90
2019-03-08T18:09:16.628Z,823.47
2019-03-08T18:16:21.938Z,962.97
2019-03-08T18:19:17.620Z,936.93
2019-03-08T18:25:16.214Z,940.77
2019-03-08T18:27:57.073Z,936.93
2019-03-08T18:30:50.895Z,909.63
2019-03-08T18:36:29.226Z,886.43
2019-03-08T18:39:12.412Z,941.97
2019-03-08T18:44:52.844Z,911.37
2019-03-08T18:47:43.755Z,1026.00
2019-03-08T18:50:29.330Z,1039.50
2019-03-08T18:53:17.736Z,978.67
2019-03-08T18:56:07.020Z,1008.73
2019-03-08T18:59:00.133Z,977.83
2019-03-08T19:01:53.237Z,970.57
2019-03-08T19:04:52.382Z,944.87
2019-03-08T19:07:52.047Z,915.63
2019-03-08T19:10:31.704Z,903.37
2019-03-08T19:13:35.332Z,916.27
2019-03-08T19:16:32.503Z,908.43
2019-03-08T19:19:15.171Z,898.03
2019-03-08T19:22:02.240Z,906.50
2019-03-08T19:24:50.739Z,901.80
2019-03-08T19:27:37.996Z,914.00
2019-03-08T19:30:30.276Z,968.67
2019-03-08T19:36:13.057Z,930.03
2019-03-08T19:39:05.110Z,867.10
2019-03-08T19:41:52.299Z,886.40
2019-03-08T19:44:55.288Z,875.87
2019-03-08T19:47:52.508Z,881.80
2019-03-08T19:50:40.001Z,868.03
2019-03-08T19:56:29.731Z,909.27
2019-03-08T20:02:14.996Z,835.13
2019-03-08T20:05:02.217Z,845.07
2019-03-08T20:10:39.221Z,857.93
2019-03-08T20:13:29.480Z,884.30
2019-03-08T20:19:48.355Z,865.70
2019-03-08T20:22:39.612Z,879.93
2019-03-08T20:25:25.828Z,856.60
2019-03-08T20:31:13.859Z,897.73
2019-03-08T20:34:07.515Z,858.40
2019-03-08T20:36:53.344Z,891.03
2019-03-08T20:39:53.677Z,863.20
2019-03-08T20:42:47.544Z,860.30
2019-03-08T20:45:32.868Z,893.97
2019-03-08T20:50:37.063Z,895.13
2019-03-08T20:53:06.312Z,857.20
2019-03-08T20:55:35.316Z,899.77
2019-03-08T20:58:05.562Z,888.97
2019-03-08T21:00:44.038Z,882.97
2019-03-08T21:03:15.595Z,873.63
2019-03-08T21:05:46.849Z,893.83
2019-03-08T21:08:32.092Z,902.47
2019-03-08T21:11:01.203Z,870.87
2019-03-08T21:13:30.285Z,894.80
2019-03-08T21:16:02.388Z,862.73
2019-03-08T21:18:40.489Z,886.67
2019-03-08T21:21:09.730Z,837.27
2019-03-08T21:23:38.628Z,872.93
2019-03-08T21:26:07.520Z,901.20
2019-03-08T21:29:04.834Z,856.03
2019-03-08T21:31:33.767Z,877.20
2019-03-08T21:34:03.207Z,858.97
2019-03-08T21:36:32.052Z,894.57
2019-03-08T21:39:10.328Z,840.43
2019-03-08T21:41:39.583Z,868.17
2019-03-08T21:44:08.652Z,883.67
2019-03-08T21:46:37.725Z,867.03
2019-03-08T21:49:21.495Z,856.63
2019-03-08T21:51:50.792Z,853.07
2019-03-08T21:54:21.328Z,864.17
2019-03-08T21:56:52.003Z,861.67
2019-03-08T22:02:04.958Z,836.67
2019-03-08T22:04:46.927Z,805.00
2019-03-08T22:07:15.975Z,774.10
2019-03-08T22:12:59.587Z,861.90
2019-03-08T22:15:28.776Z,865.30
2019-03-08T22:17:57.512Z,852.27
2019-03-08T22:20:36.205Z,832.17
2019-03-08T22:23:08.432Z,821.53
2019-03-08T22:25:40.353Z,756.00
2019-03-08T22:28:09.711Z,604.20
2019-03-08T22:30:47.901Z,487.93
2019-03-08T22:33:17.060Z,369.43
2019-03-08T22:35:46.193Z,322.07
2019-03-08T22:38:15.835Z,255.47
2019-03-08T22:40:53.812Z,348.87
2019-03-08T22:43:22.943Z,301.97
2019-03-08T22:45:52.460Z,232.57
2019-03-08T22:48:24.336Z,284.30
2019-03-08T22:51:02.323Z,263.23
2019-03-08T22:53:31.483Z,367.40
2019-03-08T22:56:01.137Z,400.10
2019-03-08T22:58:30.252Z,369.47
2019-03-08T23:01:10.371Z,440.23
2019-03-08T23:03:39.136Z,376.33
2019-03-08T23:06:08.187Z,469.30
2019-03-08T23:08:37.505Z,452.40
2019-03-08T23:13:50.936Z,305.83
2019-03-08T23:16:22.188Z,309.50
2019-03-08T23:18:51.208Z,214.83
2019-03-08T23:21:29.483Z,145.30
2019-03-08T23:23:58.985Z,293.33
2019-03-08T23:26:30.141Z,254.10
2019-03-08T23:29:06.241Z,80.93
2019-03-08T23:31:58.172Z,75.90
2019-03-08T23:34:27.288Z,34.87
2019-03-08T23:36:56.307Z,191.20
2019-03-08T23:39:25.073Z,185.20
2019-03-08T23:42:03.363Z,223.10
2019-03-08T23:44:32.459Z,252.27
2019-03-08T23:47:01.362Z,115.20
2019-03-08T23:49:30.382Z,144.10
2019-03-08T23:54:42.511Z,147.10
2019-03-08T23:57:14.232Z,73.97
2019-03-08T23:59:43.583Z,75.90
